Time;durP1;ratioP1;P1;durP2;ratioP2;P2;SDS_P1;SDS_P2;PMS_P1;PMS_P2;Temp;Humidity;BMP_temperature;BMP_pressure;BME280_temperature;BME280_humidity;BME280_pressure;Samples;Min_cycle;Max_cycle;Signal;HPM_P1;HPM_P2
2024/02/11 00:02:05;;;;;;;33.40;30.10;;;9.20;99.90;;;;;;5012265;28;20203;-78
2024/02/11 00:04:32;;;;;;;29.80;27.00;;;9.20;99.90;;;;;;4994739;28;20742;-78
2024/02/11 00:06:59;;;;;;;29.57;26.73;;;9.20;99.90;;;;;;4994637;28;20313;-78
2024/02/11 00:09:27;;;;;;;30.87;27.97;;;9.20;99.90;;;;;;5012622;28;20193;-78
2024/02/11 00:11:54;;;;;;;30.67;27.77;;;9.20;99.90;;;;;;4996195;28;20204;-78
2024/02/11 00:14:21;;;;;;;32.57;29.63;;;9.20;99.90;;;;;;4999806;28;20202;-79
2024/02/11 00:16:48;;;;;;;29.97;27.20;;;9.20;99.90;;;;;;4991449;28;20279;-78
2024/02/11 00:19:15;;;;;;;30.87;28.07;;;9.20;99.90;;;;;;4992265;28;20213;-78
2024/02/11 00:21:42;;;;;;;32.77;29.73;;;9.20;99.90;;;;;;4994751;28;20590;-78
2024/02/11 00:24:09;;;;;;;29.47;26.93;;;9.20;99.90;;;;;;4999168;28;20217;-78
2024/02/11 00:26:38;;;;;;;28.33;25.87;;;9.20;99.90;;;;;;4991168;28;20330;-78
2024/02/11 00:29:07;;;;;;;28.53;25.93;;;9.20;99.90;;;;;;5011154;28;20197;-78
2024/02/11 00:31:35;;;;;;;30.13;27.43;;;9.20;99.90;;;;;;4995609;28;20207;-78
2024/02/11 00:34:04;;;;;;;29.70;27.10;;;9.20;99.90;;;;;;5014774;28;20190;-78
2024/02/11 00:36:31;;;;;;;28.90;26.40;;;9.20;99.90;;;;;;5012004;28;20637;-78
2024/02/11 00:38:58;;;;;;;28.20;25.83;;;9.20;99.90;;;;;;5011880;28;20209;-78
2024/02/11 00:41:26;;;;;;;28.20;25.83;;;9.20;99.90;;;;;;4991353;28;20207;-78
2024/02/11 00:43:54;;;;;;;27.47;25.17;;;9.20;99.90;;;;;;5007876;28;20217;-78
2024/02/11 00:46:21;;;;;;;28.33;25.87;;;9.20;99.90;;;;;;4995749;28;20256;-78
2024/02/11 00:48:47;;;;;;;29.47;26.77;;;9.20;99.90;;;;;;4998962;28;20214;-78
2024/02/11 00:51:14;;;;;;;28.30;25.80;;;9.20;99.90;;;;;;5011741;28;20240;-78
2024/02/11 00:53:41;;;;;;;29.20;26.40;;;9.20;99.90;;;;;;5011839;28;20215;-78
2024/02/11 00:56:08;;;;;;;27.07;24.80;;;9.20;99.90;;;;;;4993389;28;20733;-78
2024/02/11 00:58:35;;;;;;;27.97;25.53;;;9.20;99.90;;;;;;4992251;28;20707;-78
2024/02/11 01:01:04;;;;;;;30.17;27.53;;;9.20;99.90;;;;;;4993276;28;20670;-77
2024/02/11 01:03:31;;;;;;;27.77;25.33;;;9.30;99.90;;;;;;4993296;28;20201;-78
2024/02/11 01:05:58;;;;;;;25.37;23.20;;;9.30;99.90;;;;;;4990822;28;20665;-78
2024/02/11 01:08:25;;;;;;;29.33;26.83;;;9.30;99.90;;;;;;5011231;28;20198;-78
2024/02/11 01:10:52;;;;;;;27.00;24.80;;;9.20;99.90;;;;;;5011644;28;20204;-78
2024/02/11 01:13:19;;;;;;;29.33;26.63;;;9.30;99.90;;;;;;5022846;28;20331;-78
2024/02/11 01:15:46;;;;;;;25.50;23.40;;;9.30;99.90;;;;;;4992664;28;20206;-78
2024/02/11 01:18:14;;;;;;;28.43;25.93;;;9.20;99.90;;;;;;4999439;28;20202;-77
2024/02/11 01:20:42;;;;;;;26.50;24.10;;;9.30;99.90;;;;;;5011476;28;20221;-78
2024/02/11 01:23:09;;;;;;;23.13;20.87;;;9.20;99.90;;;;;;4991421;28;20273;-78
2024/02/11 01:25:36;;;;;;;18.60;16.00;;;9.20;99.90;;;;;;4993392;28;20275;-78
2024/02/11 01:28:04;;;;;;;16.40;14.17;;;9.20;99.90;;;;;;4991655;28;20209;-78
2024/02/11 01:30:33;;;;;;;25.10;22.67;;;9.20;99.90;;;;;;5005574;28;20638;-78
2024/02/11 01:33:00;;;;;;;22.00;19.83;;;9.20;99.90;;;;;;5011425;28;20190;-78
2024/02/11 01:35:28;;;;;;;26.03;23.53;;;9.20;99.90;;;;;;5011744;28;20221;-78
2024/02/11 01:37:55;;;;;;;26.70;24.33;;;9.20;99.90;;;;;;4993477;28;20217;-78
2024/02/11 01:40:22;;;;;;;31.50;28.60;;;9.20;99.90;;;;;;4993614;28;20206;-78
2024/02/11 01:42:49;;;;;;;28.47;26.07;;;9.20;99.90;;;;;;5013102;28;20206;-77
2024/02/11 01:45:17;;;;;;;30.83;28.23;;;9.20;99.90;;;;;;5026534;28;20224;-78
2024/02/11 01:47:45;;;;;;;32.90;30.10;;;9.20;99.90;;;;;;5014537;28;20695;-78
2024/02/11 01:50:16;;;;;;;25.17;22.73;;;9.20;99.90;;;;;;4997069;28;20196;-78
2024/02/11 01:52:47;;;;;;;28.53;25.77;;;9.20;99.90;;;;;;4996859;28;20270;-78
2024/02/11 01:55:17;;;;;;;28.77;26.17;;;9.20;99.90;;;;;;5011286;28;20204;-78
2024/02/11 01:57:45;;;;;;;26.57;24.30;;;9.20;99.90;;;;;;4993939;28;20628;-78
2024/02/11 02:00:13;;;;;;;27.87;25.47;;;9.20;99.90;;;;;;5014974;28;20610;-78
2024/02/11 02:02:43;;;;;;;26.67;24.37;;;9.20;99.90;;;;;;5004864;28;20251;-78
2024/02/11 02:05:10;;;;;;;26.57;24.03;;;9.20;99.90;;;;;;4997365;28;20220;-78
2024/02/11 02:07:39;;;;;;;27.00;24.70;;;9.20;99.90;;;;;;5006419;28;20308;-78
2024/02/11 02:10:09;;;;;;;26.87;24.57;;;9.20;99.90;;;;;;5014318;28;20659;-78
2024/02/11 02:12:36;;;;;;;31.93;29.23;;;9.20;99.90;;;;;;5014570;28;20279;-78
2024/02/11 02:15:04;;;;;;;26.83;24.53;;;9.20;99.90;;;;;;4995148;28;20635;-77
2024/02/11 02:17:30;;;;;;;25.73;23.70;;;9.20;99.90;;;;;;5014137;28;20218;-78
2024/02/11 02:19:57;;;;;;;29.43;27.03;;;9.20;99.90;;;;;;5014844;28;20224;-78
2024/02/11 02:22:25;;;;;;;29.27;26.97;;;9.20;99.90;;;;;;5014733;28;20203;-78
2024/02/11 02:24:52;;;;;;;25.77;23.90;;;9.20;99.90;;;;;;5014066;28;20244;-78
2024/02/11 02:27:19;;;;;;;22.83;21.40;;;9.20;99.90;;;;;;5013600;28;20232;-78
2024/02/11 02:29:45;;;;;;;23.93;22.33;;;9.10;99.90;;;;;;5013946;28;20193;-78
2024/02/11 02:32:12;;;;;;;23.27;21.97;;;9.00;99.90;;;;;;5014225;28;20200;-77
2024/02/11 02:34:40;;;;;;;17.40;16.50;;;8.90;99.90;;;;;;5014270;28;20197;-78
2024/02/11 02:37:07;;;;;;;19.93;18.63;;;8.90;99.90;;;;;;5020171;28;20706;-77
2024/02/11 02:39:36;;;;;;;13.60;12.90;;;8.80;99.90;;;;;;4996044;28;20197;-78
2024/02/11 02:42:02;;;;;;;13.17;12.43;;;8.70;99.90;;;;;;4994649;28;20255;-78
2024/02/11 02:44:30;;;;;;;12.97;12.27;;;8.60;99.90;;;;;;4995319;28;20232;-78
2024/02/11 02:46:57;;;;;;;13.03;12.33;;;8.60;99.90;;;;;;5000882;28;20250;-78
2024/02/11 02:49:24;;;;;;;13.23;12.53;;;8.50;99.90;;;;;;4997721;28;20263;-78
2024/02/11 02:51:51;;;;;;;12.90;12.27;;;8.50;99.90;;;;;;4996114;28;20207;-77
2024/02/11 02:54:18;;;;;;;13.70;13.00;;;8.40;99.90;;;;;;4995268;28;20200;-78
2024/02/11 02:56:47;;;;;;;12.87;12.27;;;8.30;99.90;;;;;;4993318;28;20240;-78
2024/02/11 02:59:13;;;;;;;13.30;12.60;;;8.20;99.90;;;;;;4992745;28;20197;-78
2024/02/11 03:01:41;;;;;;;12.47;11.87;;;8.10;99.90;;;;;;4992768;28;20204;-78
2024/02/11 03:04:08;;;;;;;12.60;12.00;;;8.10;99.90;;;;;;5009193;28;20311;-78
2024/02/11 03:06:35;;;;;;;12.47;11.87;;;8.00;99.90;;;;;;4995642;28;20246;-78
2024/02/11 03:09:06;;;;;;;12.20;11.60;;;7.90;99.90;;;;;;5013215;28;20690;-78
2024/02/11 03:11:34;;;;;;;12.30;11.70;;;7.90;99.90;;;;;;4995653;28;20208;-78
2024/02/11 03:14:03;;;;;;;12.37;11.77;;;7.80;99.90;;;;;;4996600;28;20257;-78
2024/02/11 03:16:29;;;;;;;13.40;12.70;;;7.80;99.90;;;;;;5022796;28;20220;-78
2024/02/11 03:18:56;;;;;;;12.93;12.33;;;7.70;99.90;;;;;;4995625;28;20258;-77
2024/02/11 03:21:23;;;;;;;13.10;12.40;;;7.70;99.90;;;;;;4994765;28;20209;-78
2024/02/11 03:23:50;;;;;;;12.30;11.70;;;7.70;99.90;;;;;;5018407;28;20197;-77
2024/02/11 03:26:17;;;;;;;12.20;11.60;;;7.60;99.90;;;;;;5013216;28;20220;-77
2024/02/11 03:28:44;;;;;;;12.37;11.77;;;7.60;99.90;;;;;;5013109;28;20291;-78
2024/02/11 03:31:12;;;;;;;12.20;11.60;;;7.50;99.90;;;;;;5013119;28;20224;-78
2024/02/11 03:33:39;;;;;;;12.80;12.10;;;7.50;99.90;;;;;;4995236;28;20262;-78
2024/02/11 03:36:06;;;;;;;12.80;12.20;;;7.50;99.90;;;;;;4995431;28;20270;-78
2024/02/11 03:38:33;;;;;;;13.30;12.60;;;7.40;99.90;;;;;;5002461;28;20214;-78
2024/02/11 03:41:00;;;;;;;13.37;12.67;;;7.40;99.90;;;;;;5025932;28;20254;-79
2024/02/11 03:43:27;;;;;;;13.03;12.33;;;7.30;99.90;;;;;;5012894;28;20223;-78
2024/02/11 03:45:53;;;;;;;13.57;12.87;;;7.30;99.90;;;;;;5013235;28;20228;-78
2024/02/11 03:48:21;;;;;;;13.37;12.67;;;7.30;99.90;;;;;;5011828;28;20224;-80
2024/02/11 03:50:48;;;;;;;13.57;12.87;;;7.20;99.90;;;;;;5023712;28;20203;-76
2024/02/11 03:53:18;;;;;;;13.30;12.60;;;7.20;99.90;;;;;;5011917;28;20676;-76
2024/02/11 03:55:46;;;;;;;13.50;12.80;;;7.10;99.90;;;;;;4995159;28;20193;-78
2024/02/11 03:58:14;;;;;;;13.53;12.83;;;7.10;99.90;;;;;;5012527;28;20200;-78
2024/02/11 04:00:44;;;;;;;13.63;12.93;;;7.00;99.90;;;;;;5012641;28;20199;-78
2024/02/11 04:03:16;;;;;;;13.30;12.60;;;7.00;99.90;;;;;;4989898;28;20791;-78
2024/02/11 04:05:44;;;;;;;13.40;12.70;;;7.00;99.90;;;;;;4993997;28;20318;-78
2024/02/11 04:08:11;;;;;;;13.10;12.40;;;6.90;99.90;;;;;;5006093;28;20207;-77
2024/02/11 04:10:39;;;;;;;13.43;12.63;;;6.90;99.90;;;;;;5001952;28;20230;-78
2024/02/11 04:13:09;;;;;;;13.30;12.60;;;6.90;99.90;;;;;;4999071;28;20622;-78
2024/02/11 04:15:37;;;;;;;13.30;12.60;;;6.80;99.90;;;;;;4993719;28;20280;-79
2024/02/11 04:18:10;;;;;;;13.40;12.60;;;6.80;99.90;;;;;;5015408;28;20200;-79
2024/02/11 04:20:37;;;;;;;12.93;12.30;;;6.80;99.90;;;;;;5012195;28;20210;-78
2024/02/11 04:23:07;;;;;;;12.90;12.30;;;6.70;99.90;;;;;;4991178;28;20204;-78
2024/02/11 04:25:36;;;;;;;12.80;12.10;;;6.70;99.90;;;;;;5018419;28;20269;-78
2024/02/11 04:28:05;;;;;;;13.00;12.40;;;6.60;99.90;;;;;;4990980;28;20749;-77
2024/02/11 04:30:32;;;;;;;13.53;12.83;;;6.60;99.90;;;;;;4993880;28;20259;-78
2024/02/11 04:33:03;;;;;;;13.07;12.47;;;6.50;99.90;;;;;;4994833;28;20211;-77
2024/02/11 04:35:30;;;;;;;13.10;12.50;;;6.50;99.90;;;;;;4992274;28;20205;-77
2024/02/11 04:37:59;;;;;;;13.10;12.50;;;6.50;99.90;;;;;;4994115;28;20207;-78
2024/02/11 04:40:27;;;;;;;12.87;12.27;;;6.50;99.90;;;;;;4991107;28;20213;-78
2024/02/11 04:42:56;;;;;;;13.10;12.50;;;6.40;99.90;;;;;;5019476;28;20558;-78
2024/02/11 04:45:24;;;;;;;14.00;13.10;;;6.40;99.90;;;;;;5011704;28;20227;-77
2024/02/11 04:47:53;;;;;;;13.10;12.50;;;6.40;99.90;;;;;;5011398;28;20223;-77
2024/02/11 04:50:21;;;;;;;13.40;12.60;;;6.40;99.90;;;;;;5011901;28;20192;-78
2024/02/11 04:52:54;;;;;;;12.83;12.23;;;6.40;99.90;;;;;;5011474;28;20196;-77
2024/02/11 04:55:22;;;;;;;13.20;12.57;;;6.30;99.90;;;;;;5012157;28;20203;-77
2024/02/11 04:57:51;;;;;;;13.47;12.77;;;6.30;99.90;;;;;;5011174;28;20251;-77
2024/02/11 05:00:25;;;;;;;13.57;12.87;;;6.30;99.90;;;;;;5002370;28;20207;-78
2024/02/11 05:02:53;;;;;;;13.43;12.73;;;6.20;99.90;;;;;;5006252;28;20271;-78
2024/02/11 05:05:25;;;;;;;13.80;13.10;;;6.30;99.90;;;;;;4991710;28;20219;-78
2024/02/11 05:07:53;;;;;;;13.40;12.70;;;6.30;99.90;;;;;;5002407;28;20223;-78
2024/02/11 05:10:21;;;;;;;13.47;12.77;;;6.20;99.90;;;;;;4993638;28;20211;-78
2024/02/11 05:12:49;;;;;;;13.50;12.80;;;6.20;99.90;;;;;;4993518;28;20222;-77
2024/02/11 05:15:20;;;;;;;13.23;12.53;;;6.20;99.90;;;;;;4994179;28;20202;-77
2024/02/11 05:17:49;;;;;;;13.30;12.60;;;6.20;99.90;;;;;;5019989;28;20228;-78
2024/02/11 05:20:21;;;;;;;13.20;12.50;;;6.20;99.90;;;;;;5015711;28;20203;-77
2024/02/11 05:22:49;;;;;;;13.37;12.67;;;6.20;99.90;;;;;;5001175;28;20675;-78
2024/02/11 05:25:19;;;;;;;13.20;12.50;;;6.20;99.90;;;;;;5004416;28;20251;-81
2024/02/11 05:27:55;;;;;;;13.33;12.63;;;6.20;99.90;;;;;;4996839;28;20235;-78
2024/02/11 05:30:24;;;;;;;13.80;13.10;;;6.10;99.90;;;;;;4993942;28;20198;-80
2024/02/11 05:32:58;;;;;;;13.40;12.70;;;6.10;99.90;;;;;;5015455;28;20203;-85
2024/02/11 05:35:29;;;;;;;13.60;12.90;;;6.10;99.90;;;;;;5010828;28;20255;-79
2024/02/11 05:37:58;;;;;;;13.57;12.77;;;6.10;99.90;;;;;;5012595;28;20281;-75
2024/02/11 05:40:26;;;;;;;13.60;12.90;;;6.10;99.90;;;;;;4995696;28;20258;-76
2024/02/11 05:42:53;;;;;;;13.33;12.63;;;6.10;99.90;;;;;;5018012;28;20222;-78
2024/02/11 05:45:20;;;;;;;13.60;12.90;;;6.10;99.90;;;;;;5016612;28;20287;-78
2024/02/11 05:47:48;;;;;;;13.00;12.40;;;6.10;99.90;;;;;;5015832;28;20703;-78
2024/02/11 05:50:16;;;;;;;13.40;12.70;;;6.10;99.90;;;;;;5015773;28;20677;-78
2024/02/11 05:52:43;;;;;;;14.30;13.60;;;6.10;99.90;;;;;;4996469;28;20208;-79
2024/02/11 05:55:18;;;;;;;14.10;13.40;;;6.10;99.90;;;;;;5016519;28;20197;-78
2024/02/11 05:57:46;;;;;;;14.13;13.43;;;6.10;99.90;;;;;;5009446;28;20223;-77
2024/02/11 06:00:16;;;;;;;14.17;13.47;;;6.10;99.90;;;;;;5014005;28;20594;-81
2024/02/11 06:02:43;;;;;;;14.10;13.40;;;6.10;99.90;;;;;;5011193;28;20192;-81
2024/02/11 06:05:13;;;;;;;14.03;13.33;;;6.10;99.90;;;;;;5013219;28;20363;-80
2024/02/11 06:07:40;;;;;;;14.07;13.37;;;6.10;99.90;;;;;;4996585;28;20224;-80
2024/02/11 06:10:11;;;;;;;14.10;13.40;;;6.10;99.90;;;;;;4998112;28;20483;-81
2024/02/11 06:12:39;;;;;;;14.00;13.30;;;6.10;99.90;;;;;;5012379;28;20782;-80
2024/02/11 06:15:08;;;;;;;14.60;13.70;;;6.10;99.90;;;;;;4998697;28;20199;-78
2024/02/11 06:17:36;;;;;;;14.23;13.53;;;6.10;99.90;;;;;;5007952;28;20730;-79
2024/02/11 06:20:03;;;;;;;14.00;13.30;;;6.10;99.90;;;;;;4992869;28;20560;-79
2024/02/11 06:22:31;;;;;;;14.27;13.47;;;6.10;99.90;;;;;;4986518;28;20208;-78
2024/02/11 06:24:58;;;;;;;14.07;13.37;;;6.00;99.90;;;;;;4991154;28;20284;-79
2024/02/11 06:27:25;;;;;;;14.10;13.30;;;6.10;99.90;;;;;;4996598;28;20253;-79
2024/02/11 06:29:52;;;;;;;14.03;13.33;;;6.10;99.90;;;;;;5006967;28;20283;-78
2024/02/11 06:32:19;;;;;;;14.60;13.87;;;6.10;99.90;;;;;;4991451;28;20299;-78
2024/02/11 06:34:45;;;;;;;14.43;13.73;;;6.10;99.90;;;;;;5015737;28;20253;-78
2024/02/11 06:37:12;;;;;;;13.63;12.93;;;6.10;99.90;;;;;;5004165;28;20217;-79
2024/02/11 06:39:40;;;;;;;14.50;13.70;;;6.10;99.90;;;;;;5001913;28;20235;-79
2024/02/11 06:42:09;;;;;;;14.47;13.77;;;6.10;99.90;;;;;;5000841;28;20208;-76
2024/02/11 06:44:40;;;;;;;14.80;14.00;;;6.20;99.90;;;;;;5017286;28;20203;-80
2024/02/11 06:47:08;;;;;;;15.00;14.20;;;6.20;99.90;;;;;;5006976;28;20269;-78
2024/02/11 06:49:36;;;;;;;15.10;14.20;;;6.20;99.90;;;;;;5014425;28;20616;-78
2024/02/11 06:52:04;;;;;;;14.70;13.90;;;6.20;99.90;;;;;;4996783;28;20305;-80
2024/02/11 06:54:30;;;;;;;14.83;14.03;;;6.20;99.90;;;;;;4999861;28;20208;-78
2024/02/11 06:56:59;;;;;;;14.00;13.30;;;6.20;99.90;;;;;;5002056;28;20223;-78
2024/02/11 06:59:26;;;;;;;14.23;13.53;;;6.30;99.90;;;;;;5018909;28;20710;-78
2024/02/11 07:01:56;;;;;;;15.00;14.20;;;6.30;99.90;;;;;;4996409;28;20741;-79
2024/02/11 07:04:23;;;;;;;14.67;13.87;;;6.30;99.90;;;;;;5014867;28;20203;-77
2024/02/11 07:06:53;;;;;;;15.17;14.20;;;6.30;99.90;;;;;;5021095;28;20581;-78
2024/02/11 07:09:22;;;;;;;15.10;14.30;;;6.30;99.90;;;;;;4998274;28;20236;-79
2024/02/11 07:11:50;;;;;;;15.10;14.30;;;6.30;99.90;;;;;;5018895;28;20210;-79
2024/02/11 07:14:18;;;;;;;15.17;14.37;;;6.30;99.90;;;;;;5007115;28;20586;-78
2024/02/11 07:16:46;;;;;;;15.23;14.43;;;6.30;99.90;;;;;;5019837;28;20223;-78
2024/02/11 07:19:13;;;;;;;15.20;14.40;;;6.30;99.90;;;;;;5019705;28;20253;-78
2024/02/11 07:21:41;;;;;;;15.10;14.30;;;6.30;99.90;;;;;;4996935;28;20199;-77
2024/02/11 07:24:09;;;;;;;15.50;14.60;;;6.40;99.90;;;;;;5024858;28;20618;-79
2024/02/11 07:26:36;;;;;;;15.37;14.50;;;6.40;99.90;;;;;;4993211;28;20277;-78
2024/02/11 07:29:04;;;;;;;15.77;14.97;;;6.40;99.90;;;;;;4994831;28;20203;-77
2024/02/11 07:31:33;;;;;;;16.27;15.37;;;6.50;99.90;;;;;;5012154;28;20192;-79
2024/02/11 07:34:00;;;;;;;16.00;15.00;;;6.50;99.90;;;;;;4994950;28;20228;-78
2024/02/11 07:36:27;;;;;;;16.00;15.10;;;6.50;99.90;;;;;;4992282;28;20282;-79
2024/02/11 07:38:55;;;;;;;15.73;14.83;;;6.60;99.90;;;;;;5011587;28;20203;-79
2024/02/11 07:41:22;;;;;;;15.57;14.70;;;6.60;99.90;;;;;;5013390;28;20675;-78
2024/02/11 07:43:49;;;;;;;15.43;14.60;;;6.60;99.90;;;;;;5012848;28;20207;-78
2024/02/11 07:46:16;;;;;;;16.03;15.13;;;6.60;99.90;;;;;;5012306;28;20255;-79
2024/02/11 07:48:45;;;;;;;15.80;14.90;;;6.70;99.90;;;;;;4992360;28;20668;-78
2024/02/11 07:51:14;;;;;;;15.70;14.80;;;6.80;99.90;;;;;;4995438;28;20215;-79
2024/02/11 07:53:41;;;;;;;16.33;15.43;;;6.80;99.90;;;;;;4991793;28;20263;-79
2024/02/11 07:56:14;;;;;;;16.30;15.40;;;6.80;99.90;;;;;;5013153;28;20606;-79
2024/02/11 07:58:40;;;;;;;16.10;15.10;;;6.80;99.90;;;;;;4992332;28;20292;-79
2024/02/11 08:01:08;;;;;;;15.53;14.63;;;6.90;99.90;;;;;;4995597;28;20201;-79
2024/02/11 08:03:34;;;;;;;16.10;15.20;;;6.90;99.90;;;;;;4995016;28;20199;-79
2024/02/11 08:06:04;;;;;;;16.50;15.53;;;7.00;99.90;;;;;;5012583;28;20228;-77
2024/02/11 08:08:30;;;;;;;14.97;14.17;;;7.10;99.90;;;;;;5020507;28;20204;-78
2024/02/11 08:10:58;;;;;;;14.57;13.67;;;7.20;99.90;;;;;;4994939;28;20743;-79
2024/02/11 08:13:26;;;;;;;15.50;14.47;;;7.20;99.90;;;;;;4995116;28;20620;-79
2024/02/11 08:15:53;;;;;;;15.33;14.43;;;7.20;99.90;;;;;;4994893;28;20614;-79
2024/02/11 08:18:19;;;;;;;15.03;14.13;;;7.30;99.90;;;;;;4991207;28;20224;-79
2024/02/11 08:20:46;;;;;;;14.37;13.57;;;7.30;99.90;;;;;;4996958;28;20259;-82
2024/02/11 08:23:18;;;;;;;14.60;13.70;;;7.40;99.90;;;;;;4997178;28;20211;-80
2024/02/11 08:25:44;;;;;;;15.60;14.60;;;7.40;99.90;;;;;;5014825;28;20224;-78
2024/02/11 08:28:11;;;;;;;15.30;14.40;;;7.40;99.90;;;;;;4993245;28;20208;-78
2024/02/11 08:30:39;;;;;;;15.33;14.43;;;7.50;99.90;;;;;;4994590;28;20204;-78
2024/02/11 08:33:05;;;;;;;15.23;14.30;;;7.50;99.90;;;;;;4989340;28;20604;-77
2024/02/11 08:35:32;;;;;;;15.30;14.40;;;7.50;99.90;;;;;;5008087;28;20246;-79
2024/02/11 08:37:59;;;;;;;15.80;14.80;;;7.60;99.90;;;;;;4987503;28;20197;-81
2024/02/11 08:40:27;;;;;;;15.23;14.33;;;7.60;99.90;;;;;;5013396;28;20333;-80
2024/02/11 08:42:54;;;;;;;15.83;14.63;;;7.70;99.90;;;;;;5012604;28;20231;-80
2024/02/11 08:45:21;;;;;;;16.50;15.30;;;7.80;99.90;;;;;;4995703;28;20208;-80
2024/02/11 08:47:48;;;;;;;16.10;15.00;;;7.90;99.90;;;;;;5012451;28;20231;-80
2024/02/11 08:50:15;;;;;;;16.70;15.50;;;7.90;99.90;;;;;;5021237;28;20200;-81
2024/02/11 08:52:43;;;;;;;15.97;14.83;;;8.00;99.90;;;;;;5006393;28;20201;-81
2024/02/11 08:55:11;;;;;;;16.40;15.23;;;8.10;99.90;;;;;;4995047;28;20212;-81
2024/02/11 08:57:39;;;;;;;15.80;14.80;;;8.20;99.90;;;;;;4999064;28;20220;-81
2024/02/11 09:00:12;;;;;;;15.67;14.60;;;8.30;99.90;;;;;;4994331;28;20676;-80
2024/02/11 09:02:39;;;;;;;15.47;14.33;;;8.40;99.90;;;;;;5008665;28;20282;-80
2024/02/11 09:05:07;;;;;;;15.97;14.67;;;8.50;99.90;;;;;;4994303;28;20267;-81
2024/02/11 09:07:35;;;;;;;14.17;12.97;;;8.60;99.90;;;;;;4998797;28;20270;-82
2024/02/11 09:10:02;;;;;;;15.97;14.87;;;8.70;99.90;;;;;;5014779;28;20196;-77
2024/02/11 09:12:29;;;;;;;15.20;14.20;;;8.80;99.90;;;;;;5017996;28;20255;-77
2024/02/11 09:14:57;;;;;;;14.77;13.70;;;8.80;99.90;;;;;;5022227;28;20193;-77
2024/02/11 09:17:24;;;;;;;12.27;11.37;;;8.80;99.90;;;;;;5007771;28;20216;-77
2024/02/11 09:19:52;;;;;;;15.23;14.23;;;8.90;99.90;;;;;;5026950;28;20256;-77
2024/02/11 09:22:19;;;;;;;14.40;13.40;;;9.00;99.90;;;;;;5024972;28;20227;-78
2024/02/11 09:24:46;;;;;;;16.20;15.20;;;9.00;99.90;;;;;;4995139;28;20200;-80
2024/02/11 09:27:13;;;;;;;16.13;14.93;;;9.00;99.90;;;;;;5024385;28;20245;-81
2024/02/11 09:29:40;;;;;;;15.97;14.90;;;9.10;99.90;;;;;;5004314;28;20665;-79
2024/02/11 09:32:09;;;;;;;15.13;14.23;;;9.20;99.90;;;;;;4993705;28;20197;-80
2024/02/11 09:34:36;;;;;;;15.10;14.00;;;9.20;99.90;;;;;;5007325;28;20202;-79
2024/02/11 09:37:04;;;;;;;16.37;15.17;;;9.30;99.90;;;;;;5019783;28;20234;-79
2024/02/11 09:39:31;;;;;;;18.37;16.87;;;9.40;99.90;;;;;;4994943;28;20215;-79
2024/02/11 09:41:58;;;;;;;17.63;16.33;;;9.50;99.90;;;;;;4996037;28;20663;-78
2024/02/11 09:44:27;;;;;;;18.07;16.57;;;9.60;99.90;;;;;;5012176;28;20203;-79
2024/02/11 09:46:55;;;;;;;15.83;14.73;;;9.70;99.90;;;;;;4985935;28;20246;-80
2024/02/11 09:49:25;;;;;;;14.70;13.70;;;9.80;99.90;;;;;;4986035;28;20408;-79
2024/02/11 09:51:55;;;;;;;14.90;14.00;;;9.80;99.90;;;;;;5008463;28;20366;-80
2024/02/11 09:54:24;;;;;;;15.33;14.13;;;9.80;99.90;;;;;;5003159;28;20228;-80
2024/02/11 09:56:51;;;;;;;15.50;14.50;;;9.90;99.90;;;;;;4998857;28;20250;-81
2024/02/11 09:59:18;;;;;;;14.87;13.77;;;9.90;99.90;;;;;;5000583;28;20197;-81
2024/02/11 10:01:45;;;;;;;15.57;14.47;;;10.00;99.90;;;;;;5017483;28;20197;-80
2024/02/11 10:04:14;;;;;;;15.73;14.53;;;10.10;99.90;;;;;;4992916;28;20210;-80
2024/02/11 10:06:44;;;;;;;14.67;13.67;;;10.20;99.90;;;;;;5015564;28;20278;-81
2024/02/11 10:09:12;;;;;;;14.20;13.30;;;10.30;99.90;;;;;;4996905;28;20214;-81
2024/02/11 10:11:39;;;;;;;14.33;13.33;;;10.30;99.90;;;;;;5004183;28;20630;-82
2024/02/11 10:14:11;;;;;;;14.97;13.93;;;10.30;99.90;;;;;;5001579;28;20207;-81
2024/02/11 10:16:39;;;;;;;14.60;13.60;;;10.30;99.90;;;;;;4999428;28;20221;-82
2024/02/11 10:19:07;;;;;;;14.70;13.40;;;10.30;99.90;;;;;;4993136;28;20265;-79
2024/02/11 10:21:34;;;;;;;14.20;13.20;;;10.30;99.90;;;;;;5000301;28;20203;-82
2024/02/11 10:24:03;;;;;;;14.97;13.70;;;10.30;99.90;;;;;;5015150;28;20275;-83
2024/02/11 10:26:31;;;;;;;14.60;13.60;;;10.30;99.90;;;;;;5008607;28;20292;-83
2024/02/11 10:29:00;;;;;;;14.87;13.87;;;10.40;99.90;;;;;;5000873;28;20197;-83
2024/02/11 10:31:29;;;;;;;14.83;13.83;;;10.40;99.90;;;;;;5004666;28;20287;-79
2024/02/11 10:33:57;;;;;;;14.23;13.13;;;10.50;99.90;;;;;;4995164;28;20206;-79
2024/02/11 10:36:24;;;;;;;9.13;8.37;;;10.40;99.90;;;;;;5021936;28;20214;-80
2024/02/11 10:38:52;;;;;;;6.27;5.00;;;10.30;99.90;;;;;;5019537;28;20203;-79
2024/02/11 10:41:22;;;;;;;6.03;4.80;;;10.20;99.90;;;;;;5014883;28;20415;-81
2024/02/11 10:43:50;;;;;;;6.00;5.20;;;10.10;99.90;;;;;;5016336;28;20643;-78
2024/02/11 10:46:17;;;;;;;5.40;4.90;;;10.10;99.90;;;;;;4993850;28;21112;-79
2024/02/11 10:48:43;;;;;;;6.63;5.20;;;10.10;99.90;;;;;;5008980;28;20223;-78
2024/02/11 10:51:14;;;;;;;5.33;4.83;;;10.10;99.90;;;;;;5023353;28;20665;-79
2024/02/11 10:53:46;;;;;;;5.57;5.07;;;10.10;99.90;;;;;;4996780;28;20206;-79
2024/02/11 10:56:14;;;;;;;5.20;4.70;;;10.20;99.90;;;;;;5025031;28;20751;-84
2024/02/11 10:58:49;;;;;;;4.87;4.37;;;10.20;99.90;;;;;;5005958;28;20207;-80
2024/02/11 11:01:20;;;;;;;4.63;4.20;;;10.40;99.90;;;;;;5015980;28;20212;-80
2024/02/11 11:03:49;;;;;;;4.87;4.40;;;10.40;99.90;;;;;;5013958;28;20199;-79
2024/02/11 11:06:18;;;;;;;4.80;4.30;;;10.50;99.90;;;;;;5000120;28;20247;-80
2024/02/11 11:08:47;;;;;;;6.87;6.07;;;10.50;99.90;;;;;;4994664;28;20217;-79
2024/02/11 11:11:23;;;;;;;7.87;6.80;;;10.40;99.90;;;;;;5012713;28;20693;-80
2024/02/11 11:13:53;;;;;;;10.50;9.40;;;10.20;99.90;;;;;;5013935;28;20198;-79
2024/02/11 11:16:23;;;;;;;11.30;7.27;;;10.10;99.90;;;;;;5005017;28;20223;-77
2024/02/11 11:18:49;;;;;;;9.63;8.70;;;10.10;99.90;;;;;;5020863;28;20258;-77
2024/02/11 11:21:17;;;;;;;5.40;4.90;;;10.00;99.90;;;;;;4996330;28;20253;-80
2024/02/11 11:23:47;;;;;;;5.10;4.63;;;9.90;99.90;;;;;;5012654;28;20202;-79
2024/02/11 11:26:18;;;;;;;7.07;6.57;;;9.90;99.90;;;;;;4997325;28;20239;-80
2024/02/11 11:28:46;;;;;;;10.73;9.83;;;9.90;99.90;;;;;;5001601;28;20626;-79
2024/02/11 11:31:14;;;;;;;8.97;5.60;;;9.80;99.90;;;;;;5002862;28;20699;-80
2024/02/11 11:33:41;;;;;;;8.20;5.93;;;9.80;99.90;;;;;;4998923;28;20191;-80
2024/02/11 11:36:09;;;;;;;7.07;6.47;;;9.80;99.90;;;;;;5015604;28;20222;-80
2024/02/11 11:38:36;;;;;;;8.30;7.60;;;9.80;99.90;;;;;;5034483;28;20177;-80
2024/02/11 11:41:03;;;;;;;8.50;7.80;;;9.80;99.90;;;;;;5016678;28;20194;-78
2024/02/11 11:43:32;;;;;;;9.80;9.10;;;9.80;99.90;;;;;;5013107;28;20217;-80
2024/02/11 11:46:03;;;;;;;6.63;6.10;;;9.80;99.90;;;;;;5013171;28;20217;-79
2024/02/11 11:48:35;;;;;;;4.63;4.23;;;9.90;99.90;;;;;;4995177;28;20646;-79
2024/02/11 11:51:03;;;;;;;5.73;4.40;;;10.00;99.90;;;;;;4991848;28;20218;-79
2024/02/11 11:53:30;;;;;;;4.20;3.90;;;10.20;99.90;;;;;;5010965;28;20206;-80
2024/02/11 11:56:00;;;;;;;7.73;7.20;;;10.30;99.90;;;;;;5012923;28;20219;-80
2024/02/11 11:58:28;;;;;;;7.00;6.50;;;10.40;99.90;;;;;;5012251;28;20630;-79
2024/02/11 12:00:57;;;;;;;8.77;8.17;;;10.40;99.90;;;;;;4995922;28;20202;-80
2024/02/11 12:03:24;;;;;;;6.80;6.30;;;10.50;99.90;;;;;;4995109;28;20312;-80
2024/02/11 12:05:53;;;;;;;6.00;5.60;;;10.50;99.90;;;;;;4994818;28;20373;-79
2024/02/11 12:08:20;;;;;;;7.40;6.90;;;10.60;99.90;;;;;;4992321;28;20233;-79
2024/02/11 12:10:58;;;;;;;5.67;5.17;;;10.70;99.90;;;;;;5019005;28;20201;-79
2024/02/11 12:13:27;;;;;;;4.87;4.37;;;10.70;99.90;;;;;;5002126;28;20210;-79
2024/02/11 12:15:55;;;;;;;5.20;4.77;;;10.60;99.90;;;;;;5002413;28;20223;-80
2024/02/11 12:18:22;;;;;;;8.00;7.50;;;10.60;99.90;;;;;;5008039;28;20565;-79
2024/02/11 12:20:49;;;;;;;4.53;4.13;;;10.60;99.90;;;;;;4993779;28;20239;-79
2024/02/11 12:23:17;;;;;;;4.83;4.43;;;10.60;99.90;;;;;;5014975;28;20208;-79
2024/02/11 12:25:45;;;;;;;4.10;3.80;;;10.70;99.90;;;;;;5012427;28;20201;-79
2024/02/11 12:28:23;;;;;;;10.83;10.23;;;10.70;99.90;;;;;;4991387;28;20251;-83
2024/02/11 12:30:51;;;;;;;6.07;5.57;;;10.70;99.90;;;;;;4996003;28;20675;-79
2024/02/11 12:33:18;;;;;;;7.23;6.63;;;10.60;99.90;;;;;;4992689;28;20199;-80
2024/02/11 12:35:45;;;;;;;6.73;6.23;;;10.50;99.90;;;;;;5012363;28;20199;-80
2024/02/11 12:38:13;;;;;;;5.10;4.70;;;10.40;99.90;;;;;;5023926;28;20191;-79
2024/02/11 12:40:41;;;;;;;12.37;11.63;;;10.50;99.90;;;;;;4994650;28;20268;-79
2024/02/11 12:43:09;;;;;;;7.27;6.70;;;10.70;99.90;;;;;;4989398;28;20237;-79